Airfield :
LOGIN :

Register | Disclaimer

   EN    FR    IT 

 










Legend :    VFR   Marginal VFR   IFR   Intensive IFR   Very Intensive IFR
Visi :
Ceiling :
>= 8 km
>= 3000ft
5 to 8 km
1000 to 3000 ft
1500m to 5 km
500 to 1000 ft
800 to 1500m
200 to 500 ft
< 800m
< 200 ft
Symbols :   Thunderstorms  Fog  Heavy snow  Heavy precipitations  Wind > 20 kt
SIGMETs :     Misc.  Thunderstorms  Icing  Turbulence  Mountain Waves  Volcanic Ashes







- Airport Elevation : 160 ft
- IATA code : LRT
- Download approach charts


LFRH - Lorient Lann Bihoue

CURRENT METAR :
  • 201600Z AUTO 25013KT CAVOK 20/12 Q1026 NOSIG

EXPIRED METARs :
  • 201530Z AUTO 25014KT CAVOK 19/12 Q1026 NOSIG
  • 201500Z AUTO 25013KT CAVOK 20/13 Q1026 NOSIG
  • 201430Z AUTO 25012KT CAVOK 19/12 Q1026 NOSIG
  • 201400Z AUTO 25012KT 220V290 CAVOK 20/13 Q1027 NOSIG
  • 201330Z AUTO 25011KT CAVOK 20/11 Q1027 NOSIG

TAF TAF LFRH
Valid from the 20 at 12:00 until the 21 at 12:00 UTC


201100Z 2012/2112 25008KT 9999 FEW035
BECMG 2019/2021 04010KT
BECMG 2021/2023 CAVOK
BECMG 2107/2109 10010KT
BECMG 2110/2112 16005KT
No reported NOTAMs for that airfield.



MET'MAP, your aeronautical weather chart ! - Copyright ORBIFLY December 2007 - Disclaimer

ORBIFLY MET'MAP TEAM :

Programming & Development : Alexandra Zaïnal
Concept & Development : Baudouin d'Aumeries
Co-Development & Prog : Marc-Olivier Méhu
Technical & hardware support : Manuel Goepfert

Contact : metmap@orbifly.com




SOURCES & CREDITS :

   NOAA